Time;durP1;ratioP1;P1;durP2;ratioP2;P2;SDS_P1;SDS_P2;PMS_P1;PMS_P2;Temp;Humidity;BMP_temperature;BMP_pressure;BME280_temperature;BME280_humidity;BME280_pressure;Samples;Min_cycle;Max_cycle;Signal;HPM_P1;HPM_P2
2022/04/18 00:01:42;;;;;;;5.80;1.95;;;;;;;9.46;60.76;100378.06;5091574;28;20497;-65
2022/04/18 00:04:07;;;;;;;3.88;2.13;;;;;;;9.49;60.57;100378.88;5091265;28;20024;-66
2022/04/18 00:06:35;;;;;;;3.08;1.90;;;;;;;9.44;61.64;100375.44;5073466;28;20028;-65
2022/04/18 00:09:01;;;;;;;3.92;1.88;;;;;;;9.35;62.28;100373.00;5091459;28;20031;-65
2022/04/18 00:11:27;;;;;;;3.58;2.08;;;;;;;9.27;62.87;100370.50;5073244;28;20020;-65
2022/04/18 00:13:52;;;;;;;3.53;2.53;;;;;;;9.19;63.79;100371.59;5072939;28;20094;-65
2022/04/18 00:16:17;;;;;;;5.88;2.00;;;;;;;9.19;62.35;100366.28;5091445;28;20062;-65
2022/04/18 00:18:43;;;;;;;2.90;1.85;;;;;;;9.15;63.24;100357.53;5091436;28;20081;-65
2022/04/18 00:21:08;;;;;;;3.97;2.80;;;;;;;9.12;62.64;100356.72;5090576;28;20154;-65
2022/04/18 00:23:34;;;;;;;3.83;2.15;;;;;;;9.12;63.76;100352.28;5066380;28;20110;-65
2022/04/18 00:25:59;;;;;;;3.13;2.08;;;;;;;9.13;62.99;100369.06;5067753;28;20020;-65
2022/04/18 00:28:25;;;;;;;3.25;2.00;;;;;;;9.13;62.54;100359.31;5071153;28;20035;-65
2022/04/18 00:30:50;;;;;;;3.05;2.08;;;;;;;9.12;63.31;100356.72;5070938;28;20017;-65
2022/04/18 00:33:16;;;;;;;3.22;2.00;;;;;;;9.10;63.54;100358.50;5070969;28;20023;-65
2022/04/18 00:35:41;;;;;;;2.42;1.88;;;;;;;9.07;63.18;100363.88;5070808;28;20021;-65
2022/04/18 00:38:06;;;;;;;4.22;2.17;;;;;;;9.09;62.39;100354.97;5071003;28;20029;-65
2022/04/18 00:40:32;;;;;;;3.80;2.20;;;;;;;9.10;60.37;100353.22;5070789;28;20055;-65
2022/04/18 00:43:02;;;;;;;3.50;2.30;;;;;;;9.08;61.45;100361.19;5070169;28;20032;-65
2022/04/18 00:45:27;;;;;;;3.45;2.05;;;;;;;9.07;62.77;100359.47;5063513;28;20032;-65
2022/04/18 00:47:53;;;;;;;4.10;2.40;;;;;;;8.98;63.16;100349.03;5074552;28;20033;-65
2022/04/18 00:50:19;;;;;;;3.58;2.10;;;;;;;8.86;63.50;100348.41;5074020;28;20039;-65
2022/04/18 00:52:46;;;;;;;3.35;1.92;;;;;;;8.71;62.75;100338.13;5072641;28;20033;-65
2022/04/18 00:55:13;;;;;;;5.47;2.47;;;;;;;8.75;63.45;100343.31;5064745;28;20085;-65
2022/04/18 00:57:40;;;;;;;4.95;2.10;;;;;;;8.76;63.25;100345.09;5072206;28;20108;-65
2022/04/18 01:00:07;;;;;;;4.07;2.15;;;;;;;8.65;63.31;100317.88;5054449;28;20037;-65
2022/04/18 01:02:33;;;;;;;3.70;2.35;;;;;;;8.73;63.36;100336.31;5054441;28;20480;-66
2022/04/18 01:04:58;;;;;;;3.25;2.08;;;;;;;8.54;64.38;100324.31;5035887;28;20029;-66
2022/04/18 01:07:24;;;;;;;4.72;2.35;;;;;;;8.52;64.04;100326.09;5053721;28;20025;-66
2022/04/18 01:09:49;;;;;;;3.47;2.28;;;;;;;8.51;65.42;100324.38;5054114;28;20134;-66
2022/04/18 01:12:14;;;;;;;4.72;2.72;;;;;;;8.47;65.49;100317.38;5054340;28;20029;-66
2022/04/18 01:14:46;;;;;;;6.00;2.60;;;;;;;8.37;64.62;100318.47;5060069;28;20016;-65
2022/04/18 01:17:12;;;;;;;3.75;2.08;;;;;;;8.24;64.27;100319.63;5074270;28;20036;-65
2022/04/18 01:19:37;;;;;;;3.88;2.40;;;;;;;8.18;64.44;100315.25;5073901;28;20036;-65
2022/04/18 01:22:03;;;;;;;3.53;2.42;;;;;;;8.15;64.54;100319.72;5085190;28;20090;-65
2022/04/18 01:29:59;;;;;;;3.58;2.70;;;;;;;8.10;64.84;100308.34;5094448;28;20030;-65
2022/04/18 01:32:24;;;;;;;4.82;2.40;;;;;;;8.07;65.36;100302.19;5094346;28;20036;-65
2022/04/18 01:34:50;;;;;;;7.22;2.50;;;;;;;8.05;65.40;100309.28;5093971;28;20116;-65
2022/04/18 01:37:15;;;;;;;3.67;2.60;;;;;;;7.92;64.85;100307.75;5094204;28;20394;-65
2022/04/18 01:39:41;;;;;;;3.45;2.45;;;;;;;7.87;64.40;100309.59;5094153;28;20031;-65
2022/04/18 01:42:06;;;;;;;5.15;2.40;;;;;;;7.83;65.59;100302.63;5094095;28;20096;-65
2022/04/18 01:44:31;;;;;;;5.47;2.45;;;;;;;7.82;64.28;100300.84;5094022;28;20106;-65
2022/04/18 01:46:57;;;;;;;4.28;2.78;;;;;;;7.77;64.81;100302.75;5093886;28;20020;-65
2022/04/18 01:49:23;;;;;;;5.20;2.47;;;;;;;7.76;64.58;100300.97;5093758;28;20031;-65
2022/04/18 01:51:48;;;;;;;4.68;2.92;;;;;;;7.70;65.63;100279.91;5093476;28;20035;-65
2022/04/18 01:54:13;;;;;;;3.83;2.50;;;;;;;7.89;64.79;100302.50;5092949;28;20493;-65
2022/04/18 01:56:39;;;;;;;4.00;2.42;;;;;;;7.93;65.12;100298.91;5093398;28;20063;-65
2022/04/18 01:59:04;;;;;;;3.17;2.50;;;;;;;7.89;65.10;100301.66;5093281;28;20020;-65
2022/04/18 02:01:31;;;;;;;4.38;2.38;;;;;;;7.83;63.96;100297.34;5093068;28;20475;-65
2022/04/18 02:03:56;;;;;;;4.10;2.55;;;;;;;7.84;64.32;100299.06;5093160;28;20035;-65
2022/04/18 02:06:22;;;;;;;3.35;2.38;;;;;;;7.76;65.01;100295.69;5093030;28;20020;-65
2022/04/18 02:08:47;;;;;;;3.88;2.45;;;;;;;7.64;63.66;100290.56;5093280;28;20024;-65
2022/04/18 02:11:13;;;;;;;4.63;2.80;;;;;;;7.55;65.12;100301.31;5093019;28;20035;-65
2022/04/18 02:13:38;;;;;;;5.53;2.70;;;;;;;7.51;65.19;100298.75;5092946;28;20016;-65
2022/04/18 02:16:04;;;;;;;3.97;2.30;;;;;;;7.45;66.47;100291.78;5092779;28;20055;-65
2022/04/18 02:18:29;;;;;;;4.80;2.70;;;;;;;7.36;67.42;100291.94;5092986;28;20612;-65
2022/04/18 02:20:55;;;;;;;4.20;2.65;;;;;;;7.40;67.65;100293.63;5083664;28;20571;-65
2022/04/18 02:23:21;;;;;;;3.58;2.42;;;;;;;7.24;68.85;100293.88;5090812;28;20460;-65
2022/04/18 02:25:46;;;;;;;3.38;2.38;;;;;;;7.18;69.14;100292.19;5091207;28;20024;-65
2022/04/18 02:28:11;;;;;;;3.83;2.90;;;;;;;7.20;69.39;100286.91;5091270;28;20024;-65
2022/04/18 02:30:37;;;;;;;9.15;3.00;;;;;;;7.29;69.25;100290.28;5084348;28;20508;-65
2022/04/18 02:33:02;;;;;;;4.50;2.60;;;;;;;7.16;68.94;100291.34;5070932;28;20122;-65
2022/04/18 02:35:28;;;;;;;3.13;2.35;;;;;;;7.03;69.24;100288.91;5070750;28;20032;-65
2022/04/18 02:37:53;;;;;;;3.72;2.55;;;;;;;6.85;69.88;100291.81;5070965;28;20024;-65
2022/04/18 02:40:20;;;;;;;4.22;2.35;;;;;;;6.82;70.38;100294.50;5071645;28;20085;-65
2022/04/18 02:42:45;;;;;;;3.85;2.40;;;;;;;6.86;71.47;100291.78;5070390;28;20052;-65
2022/04/18 02:45:12;;;;;;;4.00;2.70;;;;;;;6.84;72.41;100290.06;5070202;28;20482;-65
2022/04/18 02:47:38;;;;;;;3.67;2.65;;;;;;;6.84;72.05;100282.13;5074390;28;20024;-65
2022/04/18 02:50:05;;;;;;;4.25;2.78;;;;;;;6.81;72.24;100285.69;5071851;28;20032;-65
2022/04/18 02:52:31;;;;;;;3.72;2.70;;;;;;;6.87;73.33;100288.22;5083380;28;20039;-65
2022/04/18 02:54:56;;;;;;;5.45;2.50;;;;;;;6.80;73.95;100289.22;5092115;28;20028;-65
2022/04/18 02:57:22;;;;;;;4.60;2.60;;;;;;;6.76;74.60;100276.94;5090913;28;20471;-65
2022/04/18 02:59:47;;;;;;;5.72;3.05;;;;;;;6.78;74.27;100277.78;5092044;28;20088;-65
2022/04/18 03:02:13;;;;;;;2.92;2.22;;;;;;;6.73;75.43;100274.34;5092017;28;20024;-65
2022/04/18 03:04:38;;;;;;;3.38;2.50;;;;;;;6.64;75.63;100279.72;5091736;28;20028;-65
2022/04/18 03:07:04;;;;;;;6.10;2.92;;;;;;;6.61;75.76;100277.13;5091318;28;20083;-65
2022/04/18 03:09:29;;;;;;;4.30;2.90;;;;;;;6.62;75.96;100270.97;5074247;28;20056;-64
2022/04/18 03:11:56;;;;;;;7.95;3.03;;;;;;;6.62;76.11;100276.25;5071581;28;20505;-64
2022/04/18 03:14:22;;;;;;;4.05;2.50;;;;;;;6.59;76.20;100269.22;5090698;28;20147;-65
2022/04/18 03:16:48;;;;;;;3.58;2.45;;;;;;;6.61;76.15;100269.19;5091796;28;20046;-65
2022/04/18 03:19:13;;;;;;;4.00;2.58;;;;;;;6.60;76.56;100264.81;5091782;28;20024;-65
2022/04/18 03:21:39;;;;;;;3.60;2.53;;;;;;;6.58;76.50;100266.59;5091397;28;20051;-65
2022/04/18 03:24:05;;;;;;;5.63;2.80;;;;;;;6.62;76.54;100265.69;5090854;28;20069;-65
2022/04/18 03:26:30;;;;;;;4.07;2.80;;;;;;;6.58;76.98;100263.94;5088500;28;20020;-65
2022/04/18 03:28:56;;;;;;;3.42;2.53;;;;;;;6.48;76.46;100259.66;5091669;28;20032;-65
2022/04/18 03:31:21;;;;;;;4.78;3.08;;;;;;;6.41;76.98;100261.50;5091713;28;20024;-65
2022/04/18 03:33:46;;;;;;;4.10;2.55;;;;;;;6.36;77.21;100254.53;5091776;28;20519;-65
2022/04/18 03:41:39;;;;;;;;;;;;;;;6.43;77.74;100258.84;5092075;28;20039;-65
2022/04/18 03:44:05;;;;;;;4.15;3.00;;;;;;;6.49;76.06;100253.50;5091458;28;19995;-64
2022/04/18 03:46:30;;;;;;;4.72;3.15;;;;;;;6.54;74.18;100246.38;5091540;28;20028;-65
2022/04/18 03:48:56;;;;;;;4.97;2.53;;;;;;;6.61;73.11;100245.41;5092249;28;20156;-65
2022/04/18 03:51:21;;;;;;;4.28;3.08;;;;;;;6.56;72.54;100245.47;5091971;28;20031;-65
2022/04/18 03:53:47;;;;;;;5.55;3.03;;;;;;;6.54;72.88;100246.38;5092007;28;20390;-65
2022/04/18 03:56:12;;;;;;;4.57;2.80;;;;;;;6.50;72.38;100237.63;5092009;28;20161;-65
2022/04/18 03:58:37;;;;;;;5.53;2.92;;;;;;;6.41;72.74;100244.78;5091870;28;20387;-65
2022/04/18 04:01:03;;;;;;;6.35;3.10;;;;;;;6.43;72.11;100243.88;5091472;28;20028;-65
2022/04/18 04:03:28;;;;;;;7.20;3.20;;;;;;;6.44;72.85;100239.47;5091443;28;20577;-65
2022/04/18 04:05:54;;;;;;;4.85;3.25;;;;;;;6.41;72.44;100232.44;5091708;28;20024;-65
2022/04/18 04:08:22;;;;;;;5.03;3.20;;;;;;;6.34;72.32;100240.50;5091400;28;20054;-65
2022/04/18 04:10:51;;;;;;;3.90;2.97;;;;;;;6.40;70.70;100243.03;5091349;28;20111;-65
2022/04/18 04:13:17;;;;;;;4.50;3.17;;;;;;;6.41;71.03;100236.84;5088152;28;20042;-65
2022/04/18 04:15:43;;;;;;;6.50;4.00;;;;;;;6.35;71.42;100223.72;5091262;28;20024;-65
2022/04/18 04:18:09;;;;;;;4.47;2.88;;;;;;;6.40;72.69;100222.78;5093758;28;20445;-65
2022/04/18 04:20:34;;;;;;;7.28;3.17;;;;;;;6.39;72.10;100230.75;5095107;28;20059;-65
2022/04/18 04:23:00;;;;;;;4.97;3.22;;;;;;;6.25;71.24;100233.53;5078704;28;20020;-65
2022/04/18 04:25:25;;;;;;;5.70;3.10;;;;;;;6.28;71.80;100237.91;5075059;28;20031;-65
2022/04/18 04:27:51;;;;;;;9.10;3.42;;;;;;;6.29;71.82;100231.75;5074767;28;20020;-65
2022/04/18 04:30:16;;;;;;;5.80;2.95;;;;;;;6.33;72.16;100236.97;5074367;28;20055;-65
2022/04/18 04:32:42;;;;;;;8.73;3.15;;;;;;;6.28;72.70;100237.91;5064878;28;20493;-65
2022/04/18 04:35:07;;;;;;;4.75;2.90;;;;;;;6.09;72.48;100225.81;5053367;28;20032;-65
2022/04/18 04:37:33;;;;;;;14.98;3.35;;;;;;;6.04;71.42;100238.19;5052964;28;20025;-65
2022/04/18 04:39:58;;;;;;;6.78;3.38;;;;;;;6.05;72.19;100237.28;5054440;28;20117;-65
2022/04/18 04:42:23;;;;;;;7.00;3.17;;;;;;;6.05;72.47;100239.94;5054485;28;20357;-65
2022/04/18 04:44:49;;;;;;;7.63;3.42;;;;;;;6.08;73.48;100239.91;5066160;28;20023;-65
2022/04/18 04:47:14;;;;;;;3.75;2.83;;;;;;;6.16;72.89;100232.78;5067787;28;20066;-66
2022/04/18 04:49:40;;;;;;;4.28;2.90;;;;;;;6.20;73.55;100230.06;5054580;28;20116;-65
2022/04/18 04:52:06;;;;;;;4.32;2.90;;;;;;;6.29;73.08;100231.75;5062272;28;20032;-65
2022/04/18 04:54:35;;;;;;;6.03;3.17;;;;;;;6.32;73.19;100227.31;5056051;28;20024;-65
2022/04/18 04:57:00;;;;;;;4.78;2.60;;;;;;;6.12;73.11;100236.34;5074205;28;20387;-65
2022/04/18 04:59:26;;;;;;;4.13;2.55;;;;;;;5.89;73.60;100240.97;5074146;28;20120;-65
2022/04/18 05:01:51;;;;;;;5.45;3.28;;;;;;;5.79;74.01;100234.00;5074263;28;20029;-65
2022/04/18 05:04:17;;;;;;;4.97;2.72;;;;;;;5.88;75.25;100232.19;5073305;28;20103;-65
2022/04/18 05:06:42;;;;;;;6.43;3.08;;;;;;;5.94;75.67;100223.34;5055879;28;20039;-65
2022/04/18 05:09:08;;;;;;;5.82;2.90;;;;;;;5.96;75.19;100224.19;5068484;28;20067;-67
2022/04/18 05:11:33;;;;;;;5.20;3.22;;;;;;;6.16;75.29;100235.41;5056044;28;20080;-66
2022/04/18 05:13:59;;;;;;;6.25;3.03;;;;;;;6.20;75.56;100230.06;5073906;28;20029;-65
2022/04/18 05:16:25;;;;;;;4.63;3.15;;;;;;;6.28;75.88;100216.78;5076321;28;20024;-65
2022/04/18 05:18:50;;;;;;;5.65;3.28;;;;;;;6.54;75.09;100222.59;5093987;28;20055;-65
2022/04/18 05:21:16;;;;;;;7.65;3.35;;;;;;;6.72;74.75;100224.13;5092340;28;20123;-65
2022/04/18 05:23:42;;;;;;;5.43;3.13;;;;;;;7.02;74.79;100227.19;5073871;28;20013;-65
2022/04/18 05:26:07;;;;;;;5.88;2.92;;;;;;;7.44;73.48;100226.53;5070207;28;20086;-65
2022/04/18 05:28:33;;;;;;;5.43;3.08;;;;;;;7.80;72.50;100220.59;5053071;28;20082;-66
2022/04/18 05:30:58;;;;;;;5.05;2.75;;;;;;;8.14;71.46;100228.75;5053618;28;20021;-66
2022/04/18 05:33:24;;;;;;;5.32;3.22;;;;;;;8.64;69.27;100219.81;5053556;28;20037;-66
2022/04/18 05:35:50;;;;;;;4.53;2.97;;;;;;;8.81;67.01;100223.00;5053397;28;20481;-66
2022/04/18 05:38:17;;;;;;;6.57;3.38;;;;;;;8.75;66.89;100225.75;5053448;28;20040;-66
2022/04/18 05:40:42;;;;;;;5.60;3.75;;;;;;;8.75;68.00;100205.41;5053452;28;20523;-66
2022/04/18 05:43:11;;;;;;;4.85;3.22;;;;;;;9.40;67.71;100214.50;5053332;28;20021;-66
2022/04/18 05:45:38;;;;;;;4.40;3.10;;;;;;;10.04;65.15;100219.00;5053467;28;20578;-66
2022/04/18 05:48:03;;;;;;;5.15;3.30;;;;;;;10.40;62.08;100226.88;5053317;28;20072;-66
2022/04/18 05:50:29;;;;;;;8.27;3.67;;;;;;;10.57;60.00;100221.06;5053103;28;20476;-66
2022/04/18 05:52:54;;;;;;;4.90;2.60;;;;;;;10.77;60.27;100221.34;5067906;28;20089;-66
2022/04/18 05:55:21;;;;;;;4.65;3.28;;;;;;;11.04;56.85;100224.94;5073221;28;20021;-66
2022/04/18 05:57:48;;;;;;;5.75;3.17;;;;;;;11.88;54.96;100217.69;5073283;28;20039;-66
2022/04/18 06:00:14;;;;;;;13.48;4.00;;;;;;;13.17;51.05;100233.31;5073052;28;20028;-66
2022/04/18 06:02:39;;;;;;;10.27;5.32;;;;;;;13.50;48.48;100222.19;5072964;28;20116;-66
2022/04/18 06:05:05;;;;;;;10.23;4.35;;;;;;;13.17;49.72;100237.78;5072819;28;20107;-66
2022/04/18 06:07:31;;;;;;;6.60;3.95;;;;;;;12.77;50.46;100240.22;5073111;28;20016;-66
2022/04/18 06:09:56;;;;;;;6.22;2.97;;;;;;;12.50;51.11;100241.25;5072758;28;20506;-66
2022/04/18 06:12:22;;;;;;;4.57;2.72;;;;;;;12.24;51.35;100247.53;5072670;28;20024;-66
2022/04/18 06:14:47;;;;;;;4.25;2.90;;;;;;;12.35;50.80;100218.69;5072740;28;20368;-66
2022/04/18 06:17:13;;;;;;;4.32;2.67;;;;;;;13.28;50.76;100242.72;5082128;28;20053;-66
2022/04/18 06:19:39;;;;;;;4.38;2.70;;;;;;;13.86;49.14;100240.25;5092628;28;20055;-66
2022/04/18 06:22:04;;;;;;;4.50;2.80;;;;;;;14.22;48.37;100240.47;5069550;28;20046;-66
2022/04/18 06:24:29;;;;;;;4.18;2.90;;;;;;;15.78;45.16;100240.25;5090737;28;20054;-66
2022/04/18 06:26:55;;;;;;;5.70;2.50;;;;;;;16.70;42.46;100238.09;5092958;28;20076;-66
2022/04/18 06:29:20;;;;;;;6.25;2.83;;;;;;;15.83;43.31;100243.56;5074529;28;20012;-66
2022/04/18 06:31:46;;;;;;;3.58;2.30;;;;;;;15.87;43.22;100244.25;5092600;28;20063;-66
2022/04/18 06:34:12;;;;;;;4.28;2.17;;;;;;;16.97;42.67;100244.63;5092318;28;20499;-66
2022/04/18 06:36:38;;;;;;;3.83;2.67;;;;;;;17.97;40.91;100231.69;5093021;28;20047;-66
2022/04/18 06:39:04;;;;;;;4.43;2.55;;;;;;;18.18;39.41;100239.38;5092403;28;20028;-66
2022/04/18 06:41:30;;;;;;;4.68;3.05;;;;;;;17.20;39.39;100244.22;5091622;28;20392;-66
2022/04/18 06:43:55;;;;;;;4.28;2.47;;;;;;;16.09;40.54;100239.53;5092431;28;20024;-67
2022/04/18 06:46:21;;;;;;;4.90;2.60;;;;;;;16.24;41.98;100236.94;5092609;28;20020;-66
2022/04/18 06:48:46;;;;;;;4.10;2.80;;;;;;;16.62;42.89;100237.63;5091990;28;20024;-66
2022/04/18 06:51:11;;;;;;;4.22;2.60;;;;;;;16.83;42.16;100236.47;5092293;28;20035;-66
2022/04/18 06:53:37;;;;;;;5.70;2.97;;;;;;;17.40;41.40;100238.59;5092458;28;20383;-66
2022/04/18 06:58:46;;;;;;;4.78;2.28;;;;;;;18.07;40.32;100236.44;5074508;28;20043;-66
2022/04/18 07:01:12;;;;;;;3.72;2.50;;;;;;;18.31;38.80;100232.28;5072036;28;20024;-66
2022/04/18 07:03:37;;;;;;;7.05;2.88;;;;;;;18.62;38.39;100227.72;5072295;28;20016;-66
2022/04/18 07:06:03;;;;;;;4.85;2.65;;;;;;;19.02;37.95;100227.84;5071082;28;20024;-66
2022/04/18 07:08:29;;;;;;;4.18;2.45;;;;;;;19.13;37.30;100229.81;5073117;28;20021;-66
2022/04/18 07:10:54;;;;;;;4.05;2.13;;;;;;;18.49;37.79;100222.22;5071529;28;20031;-67
2022/04/18 07:13:19;;;;;;;5.35;2.75;;;;;;;18.40;38.36;100222.81;5089087;28;20020;-67
2022/04/18 07:15:45;;;;;;;9.25;2.47;;;;;;;18.68;38.71;100227.34;5091599;28;20027;-67
2022/04/18 07:18:10;;;;;;;4.68;2.55;;;;;;;19.11;39.34;100227.22;5091968;28;20024;-67
2022/04/18 07:20:36;;;;;;;5.15;2.30;;;;;;;19.33;38.22;100232.16;5080715;28;20128;-69
2022/04/18 07:23:02;;;;;;;12.98;3.35;;;;;;;19.09;38.67;100225.59;5056756;28;20051;-68
2022/04/18 07:25:27;;;;;;;3.70;2.85;;;;;;;19.46;36.33;100224.97;5057402;28;20299;-68
2022/04/18 07:27:53;;;;;;;4.80;2.33;;;;;;;19.75;35.61;100223.94;5062748;28;20071;-68
2022/04/18 07:30:18;;;;;;;4.72;2.55;;;;;;;19.91;36.92;100224.63;5061835;28;20016;-68
2022/04/18 07:32:44;;;;;;;4.38;2.05;;;;;;;20.16;35.20;100222.03;5068802;28;20016;-68
2022/04/18 07:35:11;;;;;;;5.88;2.53;;;;;;;20.18;34.95;100222.78;5030843;28;20020;-68
2022/04/18 07:37:37;;;;;;;5.22;2.40;;;;;;;20.35;35.80;100219.78;5049918;28;20387;-68
2022/04/18 07:40:03;;;;;;;3.72;1.83;;;;;;;20.45;35.46;100220.88;5049655;28;20021;-68
2022/04/18 07:42:28;;;;;;;3.70;2.00;;;;;;;20.66;36.35;100226.59;5062109;28;20868;-68
2022/04/18 07:44:54;;;;;;;3.83;1.95;;;;;;;20.70;33.82;100225.44;5049667;28;20108;-68
2022/04/18 07:47:20;;;;;;;4.40;1.90;;;;;;;20.95;35.43;100231.66;5056981;28;20025;-68
2022/04/18 07:49:45;;;;;;;4.50;2.00;;;;;;;20.84;34.25;100222.59;5071333;28;20036;-68
2022/04/18 07:52:12;;;;;;;4.60;2.08;;;;;;;21.05;33.84;100225.66;5072390;28;20017;-68
2022/04/18 07:54:38;;;;;;;4.30;1.70;;;;;;;21.60;33.05;100221.50;5074570;28;20021;-68
2022/04/18 07:57:04;;;;;;;3.80;1.90;;;;;;;21.67;34.12;100208.34;5067506;28;20025;-68
2022/04/18 07:59:30;;;;;;;4.00;2.00;;;;;;;;;;5054932;28;20028;-68
2022/04/18 08:01:55;;;;;;;7.63;2.20;;;;;;;21.83;32.09;100220.66;5060516;28;20040;-68
2022/04/18 08:04:21;;;;;;;4.18;2.50;;;;;;;21.21;33.79;100213.59;5063276;28;20481;-68
2022/04/18 08:06:46;;;;;;;3.65;2.20;;;;;;;21.29;32.45;100218.44;5067050;28;20047;-68
2022/04/18 08:09:12;;;;;;;4.85;2.38;;;;;;;21.76;34.64;100218.50;5071641;28;20089;-68
2022/04/18 08:11:37;;;;;;;5.75;2.15;;;;;;;22.08;32.80;100214.25;5072095;28;20075;-68
2022/04/18 08:14:03;;;;;;;6.90;2.38;;;;;;;22.30;31.48;100221.59;5054660;28;20021;-68
2022/04/18 08:16:28;;;;;;;4.88;1.80;;;;;;;22.61;31.93;100213.69;5058731;28;20090;-68
2022/04/18 08:18:55;;;;;;;6.47;2.17;;;;;;;23.04;31.97;100225.56;5067890;28;20365;-68
2022/04/18 08:21:21;;;;;;;4.22;2.22;;;;;;;23.28;31.51;100220.88;5082229;28;20048;-68
2022/04/18 08:23:50;;;;;;;5.38;2.28;;;;;;;23.73;31.35;100220.81;5094772;28;20036;-68
2022/04/18 08:26:17;;;;;;;4.00;1.90;;;;;;;23.93;30.59;100230.88;5094980;28;20043;-68
2022/04/18 08:28:42;;;;;;;4.18;1.95;;;;;;;23.84;30.17;100227.06;5076569;28;20024;-69
2022/04/18 08:31:08;;;;;;;6.47;2.20;;;;;;;23.42;29.71;100228.78;5077631;28;20033;-69
2022/04/18 08:33:34;;;;;;;3.67;1.83;;;;;;;23.51;30.64;100226.31;5077874;28;20032;-69
2022/04/18 08:36:01;;;;;;;3.90;1.65;;;;;;;23.62;31.46;100215.41;5073428;28;20020;-69
2022/04/18 08:38:26;;;;;;;4.65;2.25;;;;;;;24.05;30.79;100229.88;5075002;28;20036;-69
2022/04/18 08:40:57;;;;;;;3.15;1.58;;;;;;;23.86;27.77;100226.94;5058625;28;20428;-69
2022/04/18 08:43:23;;;;;;;3.25;1.98;;;;;;;23.78;29.24;100213.13;5074524;28;20428;-69
2022/04/18 08:45:49;;;;;;;3.05;1.70;;;;;;;23.87;30.33;100215.94;5091657;28;20020;-69
2022/04/18 08:53:45;;;;;;;3.78;1.75;;;;;;;24.65;31.58;100214.59;5084801;28;20399;-69
2022/04/18 08:56:11;;;;;;;2.92;1.58;;;;;;;24.86;28.42;100214.56;5093213;28;20111;-69
2022/04/18 08:58:37;;;;;;;3.22;1.50;;;;;;;24.97;29.85;100205.47;5092204;28;20390;-70
2022/04/18 09:01:03;;;;;;;4.32;1.70;;;;;;;24.86;27.70;100214.56;5094161;28;20484;-70
2022/04/18 09:03:29;;;;;;;3.25;1.80;;;;;;;25.01;29.68;100206.94;5092155;28;20494;-70
2022/04/18 09:06:11;;;;;;;3.80;2.22;;;;;;;25.22;28.77;100205.84;5076139;28;20016;-69
2022/04/18 09:08:46;;;;;;;4.68;1.75;;;;;;;25.31;28.09;100205.03;5059283;28;20056;-69
2022/04/18 09:11:33;;;;;;;2.90;1.55;;;;;;;25.62;29.16;100211.31;5058806;28;20027;-70
2022/04/18 09:14:13;;;;;;;3.55;1.63;;;;;;;25.65;26.18;100198.25;5093835;28;20024;-70
2022/04/18 09:16:40;;;;;;;3.95;2.10;;;;;;;26.02;27.76;100205.78;5093991;28;20106;-70
2022/04/18 09:19:12;;;;;;;5.03;1.70;;;;;;;26.15;26.99;100207.25;5090495;28;20055;-70
2022/04/18 09:21:56;;;;;;;6.03;2.15;;;;;;;25.92;26.26;100201.19;5088638;28;20068;-70
2022/04/18 09:24:33;;;;;;;5.07;1.60;;;;;;;26.02;27.51;100197.63;5072793;28;20039;-70
2022/04/18 09:27:12;;;;;;;3.10;1.50;;;;;;;26.20;26.51;100195.88;5047031;28;20488;-70
2022/04/18 09:29:39;;;;;;;3.00;1.45;;;;;;;26.21;27.23;100175.81;5064863;28;20460;-70
2022/04/18 09:32:12;;;;;;;2.85;1.63;;;;;;;25.98;28.16;100183.38;5073173;28;20024;-70
2022/04/18 09:34:39;;;;;;;3.30;1.90;;;;;;;26.21;25.93;100184.00;5073379;28;20028;-70
2022/04/18 09:37:12;;;;;;;3.30;1.42;;;;;;;26.00;28.30;100183.25;5064237;28;20063;-70
2022/04/18 09:39:41;;;;;;;3.78;1.38;;;;;;;26.12;28.30;100184.84;5053391;28;20017;-64
2022/04/18 09:42:08;;;;;;;4.15;1.77;;;;;;;26.10;29.19;100176.81;5058704;28;20097;-67
2022/04/18 09:44:35;;;;;;;2.72;1.55;;;;;;;25.97;28.26;100176.22;5073137;28;20099;-67
2022/04/18 09:47:01;;;;;;;4.60;2.20;;;;;;;25.64;27.88;100179.34;5072903;28;20098;-68
2022/04/18 09:49:37;;;;;;;4.65;2.20;;;;;;;25.30;28.02;100180.66;5073118;28;20768;-67
2022/04/18 09:52:02;;;;;;;4.18;1.85;;;;;;;25.57;26.34;100178.16;5071867;28;20038;-66
2022/04/18 09:54:32;;;;;;;4.05;1.77;;;;;;;25.81;27.01;100173.19;5072911;28;20458;-65
2022/04/18 09:57:03;;;;;;;4.40;1.95;;;;;;;25.72;26.96;100169.47;5067209;28;20090;-67
2022/04/18 09:59:30;;;;;;;19.27;12.10;;;;;;;26.06;27.99;100169.06;5069623;28;20028;-67
2022/04/18 10:01:58;;;;;;;18.88;17.15;;;;;;;26.32;25.90;100162.00;5071763;28;20354;-68
2022/04/18 10:04:24;;;;;;;46.42;41.88;;;;;;;26.09;26.99;100153.28;5071319;28;20054;-67
2022/04/18 10:06:55;;;;;;;4.13;2.05;;;;;;;26.10;27.82;100159.59;5071354;28;20023;-68
2022/04/18 10:09:22;;;;;;;3.80;1.65;;;;;;;26.19;28.50;100161.44;5068442;28;20059;-67
2022/04/18 10:11:48;;;;;;;3.28;1.80;;;;;;;26.14;26.46;100167.34;5072356;28;20032;-67
2022/04/18 10:14:13;;;;;;;3.05;1.65;;;;;;;25.97;27.70;100162.56;5072354;28;20035;-67
2022/04/18 10:16:40;;;;;;;4.32;2.00;;;;;;;26.16;25.93;100159.03;5069501;28;20115;-67
2022/04/18 10:19:22;;;;;;;3.83;1.73;;;;;;;26.16;27.62;100159.03;5072530;28;20031;-67
2022/04/18 10:21:59;;;;;;;4.35;1.90;;;;;;;26.46;27.88;100148.75;5080233;28;20036;-67
2022/04/18 10:24:27;;;;;;;4.40;1.55;;;;;;;26.12;25.59;100152.13;5072350;28;20052;-67
2022/04/18 10:27:02;;;;;;;4.50;1.77;;;;;;;26.01;29.27;100152.25;5071521;28;20032;-67
2022/04/18 10:29:32;;;;;;;4.03;1.60;;;;;;;26.50;27.57;100152.94;5072842;28;20024;-68
2022/04/18 10:32:02;;;;;;;4.07;1.90;;;;;;;26.31;26.27;100142.03;5070451;28;20143;-67
2022/04/18 10:34:34;;;;;;;2.85;1.67;;;;;;;26.65;28.33;100139.66;5070990;28;20036;-67
2022/04/18 10:37:01;;;;;;;3.13;1.60;;;;;;;26.53;28.96;100140.84;5071621;28;20098;-67
2022/04/18 10:39:37;;;;;;;3.65;2.00;;;;;;;27.05;26.26;100132.06;5070211;28;20036;-67
2022/04/18 10:42:27;;;;;;;3.15;1.30;;;;;;;27.48;25.89;100124.06;5085154;28;20028;-67
2022/04/18 10:45:08;;;;;;;6.60;1.85;;;;;;;27.74;25.93;100119.53;5072889;28;20107;-67
2022/04/18 10:47:55;;;;;;;2.80;1.40;;;;;;;27.30;25.16;100117.72;5070191;28;20024;-67
2022/04/18 10:50:26;;;;;;;4.95;1.52;;;;;;;27.09;24.48;100117.09;5073444;28;20072;-67
2022/04/18 10:53:11;;;;;;;4.53;1.60;;;;;;;27.06;25.22;100106.47;5089316;28;20028;-68
2022/04/18 10:55:38;;;;;;;4.78;1.70;;;;;;;27.13;25.10;100107.59;5089452;28;20115;-67
2022/04/18 10:58:10;;;;;;;4.53;1.48;;;;;;;27.40;25.92;100084.88;5089806;28;20020;-69
2022/04/18 11:00:52;;;;;;;3.88;1.60;;;;;;;27.33;24.67;100098.28;5080361;28;20042;-69
2022/04/18 11:04:06;;;;;;;2.85;1.15;;;;;;;27.68;25.87;100101.03;5074317;28;20398;-70
2022/04/18 11:06:36;;;;;;;3.83;1.52;;;;;;;27.37;25.20;100098.81;5068973;28;20155;-67
2022/04/18 11:09:06;;;;;;;8.85;1.50;;;;;;;27.28;24.54;100100.63;5089797;28;20518;-67
2022/04/18 11:11:40;;;;;;;3.47;1.60;;;;;;;27.50;24.29;100096.56;5081280;28;20032;-67
2022/04/18 11:14:20;;;;;;;4.72;1.52;;;;;;;27.61;24.06;100083.53;5089961;28;20036;-67
2022/04/18 11:16:46;;;;;;;4.18;1.45;;;;;;;28.09;25.53;100086.72;5084847;28;20100;-67
2022/04/18 11:19:15;;;;;;;3.42;1.40;;;;;;;27.98;23.30;100084.25;5088946;28;20030;-67
2022/04/18 11:24:51;;;;;;;3.75;1.17;;;;;;;27.86;24.14;100076.41;5053615;28;20045;-67
2022/04/18 11:27:27;;;;;;;4.93;1.85;;;;;;;28.41;24.52;100076.03;5063517;28;20039;-67
2022/04/18 11:29:59;;;;;;;2.83;1.52;;;;;;;28.48;26.07;100067.16;5049451;28;20032;-67
2022/04/18 11:32:30;;;;;;;2.17;1.38;;;;;;;27.93;23.09;100061.13;5049941;28;20025;-68
2022/04/18 11:34:57;;;;;;;2.47;1.20;;;;;;;28.15;24.83;100074.31;5051994;28;20399;-68
2022/04/18 11:37:33;;;;;;;2.30;1.35;;;;;;;28.39;23.90;100052.56;5058995;28;20107;-68
2022/04/18 11:40:00;;;;;;;4.05;1.65;;;;;;;28.08;23.20;100065.88;5069740;28;20025;-68
2022/04/18 11:42:30;;;;;;;5.00;1.65;;;;;;;28.15;24.30;100058.75;5061293;28;20031;-69
2022/04/18 11:44:58;;;;;;;4.43;1.98;;;;;;;28.12;23.59;100060.94;5055704;28;20081;-68
2022/04/18 11:47:26;;;;;;;5.10;1.50;;;;;;;27.85;23.66;100056.44;5070512;28;20441;-68
2022/04/18 11:49:58;;;;;;;3.83;1.52;;;;;;;28.07;23.29;100058.66;5070476;28;20060;-68
2022/04/18 11:52:29;;;;;;;3.13;1.50;;;;;;;28.01;25.15;100045.66;5061901;28;20071;-68